createdAt,value
2018-03-30T00:00:37.657Z,97.74
2018-03-30T00:01:38.089Z,97.88
2018-03-30T00:02:38.518Z,98.49
2018-03-30T00:03:38.927Z,98.83
2018-03-30T00:04:39.353Z,98.59
2018-03-30T00:05:39.762Z,98.40
2018-03-30T00:06:40.197Z,98.21
2018-03-30T00:07:40.618Z,98.49
2018-03-30T00:08:41.051Z,98.49
2018-03-30T00:09:41.460Z,97.55
2018-03-30T00:10:41.890Z,97.45
2018-03-30T00:11:42.301Z,97.45
2018-03-30T00:12:42.731Z,98.40
2018-03-30T00:13:43.158Z,97.74
2018-03-30T00:14:43.572Z,98.11
2018-03-30T00:15:44.017Z,97.55
2018-03-30T00:16:44.431Z,97.64
2018-03-30T00:17:44.851Z,97.74
2018-03-30T00:18:45.267Z,97.64
2018-03-30T00:19:45.687Z,97.17
2018-03-30T00:20:46.113Z,96.50
2018-03-30T00:21:46.555Z,96.31
2018-03-30T00:22:46.965Z,96.22
2018-03-30T00:23:47.394Z,96.03
2018-03-30T00:24:47.802Z,96.22
2018-03-30T00:25:48.894Z,96.78
2018-03-30T00:26:48.647Z,96.45
2018-03-30T00:27:49.070Z,96.03
2018-03-30T00:28:49.496Z,96.03
2018-03-30T00:29:49.915Z,96.22
2018-03-30T00:30:50.343Z,96.36
2018-03-30T00:31:51.400Z,95.50
2018-03-30T00:32:51.188Z,96.08
2018-03-30T00:33:51.612Z,96.12
2018-03-30T00:34:52.026Z,96.36
2018-03-30T00:35:52.452Z,95.50
2018-03-30T00:36:52.871Z,96.17
2018-03-30T00:37:53.315Z,96.08
2018-03-30T00:38:53.725Z,96.41
2018-03-30T00:39:54.136Z,95.41
2018-03-30T00:40:54.559Z,95.50
2018-03-30T00:41:54.994Z,95.69
2018-03-30T00:42:55.408Z,95.31
2018-03-30T00:43:55.828Z,95.50
2018-03-30T00:44:56.251Z,95.12
2018-03-30T00:45:56.681Z,95.41
2018-03-30T00:46:57.092Z,95.31
2018-03-30T00:47:57.521Z,95.60
2018-03-30T00:48:57.938Z,96.08
2018-03-30T00:49:58.364Z,96.36
2018-03-30T00:50:58.783Z,96.55
2018-03-30T00:51:59.206Z,96.64
2018-03-30T00:52:59.627Z,96.92
2018-03-30T00:54:00.046Z,97.21
2018-03-30T00:55:00.469Z,97.12
2018-03-30T00:56:00.893Z,96.92
2018-03-30T00:57:01.329Z,97.12
2018-03-30T00:58:01.743Z,96.36
2018-03-30T00:59:02.159Z,96.45
2018-03-30T01:00:02.583Z,95.98
2018-03-30T01:01:03.003Z,96.55
2018-03-30T01:02:03.421Z,96.26
2018-03-30T01:03:03.840Z,96.55
2018-03-30T01:04:04.278Z,96.55
2018-03-30T01:05:04.692Z,96.36
2018-03-30T01:06:05.120Z,96.26
2018-03-30T01:07:05.601Z,96.17
2018-03-30T01:08:05.965Z,95.50
2018-03-30T01:09:06.903Z,96.08
2018-03-30T01:10:06.794Z,95.31
2018-03-30T01:11:07.231Z,95.12
2018-03-30T01:12:07.644Z,94.65
2018-03-30T01:13:08.063Z,95.12
2018-03-30T01:14:08.488Z,94.84
2018-03-30T01:15:08.936Z,94.74
2018-03-30T01:16:09.334Z,94.84
2018-03-30T01:17:09.769Z,95.03
2018-03-30T01:18:10.176Z,95.03
2018-03-30T01:19:10.596Z,94.84
2018-03-30T01:20:11.010Z,94.93
2018-03-30T01:21:11.439Z,94.27
2018-03-30T01:22:11.864Z,93.70
2018-03-30T01:23:12.279Z,93.89
2018-03-30T01:24:12.714Z,93.99
2018-03-30T01:25:13.132Z,93.80
2018-03-30T01:26:13.545Z,93.89
2018-03-30T01:27:13.964Z,93.23
2018-03-30T01:28:14.394Z,93.70
2018-03-30T01:29:14.812Z,93.32
2018-03-30T01:30:15.226Z,93.04
2018-03-30T01:31:15.661Z,92.76
2018-03-30T01:32:16.088Z,92.61
2018-03-30T01:33:16.500Z,92.66
2018-03-30T01:34:16.920Z,92.57
2018-03-30T01:35:17.339Z,92.23
2018-03-30T01:36:17.772Z,91.38
2018-03-30T01:37:18.190Z,91.47
2018-03-30T01:38:18.605Z,91.47
2018-03-30T01:39:19.034Z,90.91
2018-03-30T01:40:19.457Z,90.81
2018-03-30T01:41:19.872Z,90.53
2018-03-30T01:42:20.295Z,90.24
2018-03-30T01:43:20.716Z,90.15
2018-03-30T01:44:21.141Z,89.86
2018-03-30T01:45:21.562Z,89.20
2018-03-30T01:46:21.980Z,88.92
2018-03-30T01:47:22.412Z,89.11
2018-03-30T01:48:22.826Z,88.82
2018-03-30T01:49:23.244Z,88.63
2018-03-30T01:50:23.676Z,88.73
2018-03-30T01:51:24.096Z,88.92
2018-03-30T01:52:24.511Z,88.35
2018-03-30T01:53:24.942Z,88.44
2018-03-30T01:54:25.350Z,88.44
2018-03-30T01:55:25.786Z,88.16
2018-03-30T01:56:26.203Z,87.77
2018-03-30T01:57:26.620Z,87.40
2018-03-30T01:58:27.041Z,87.59
2018-03-30T01:59:27.471Z,87.77
2018-03-30T02:00:27.890Z,87.02
2018-03-30T02:01:28.305Z,86.55
2018-03-30T02:02:28.738Z,86.64
2018-03-30T02:03:29.150Z,86.45
2018-03-30T02:04:29.572Z,86.74
2018-03-30T02:05:29.994Z,86.45
2018-03-30T02:06:30.411Z,86.55
2018-03-30T02:07:30.832Z,85.88
2018-03-30T02:08:31.260Z,86.26
2018-03-30T02:09:31.677Z,86.83
2018-03-30T02:10:32.132Z,86.26
2018-03-30T02:11:32.521Z,86.45
2018-03-30T02:12:32.943Z,86.26
2018-03-30T02:13:33.388Z,86.45
2018-03-30T02:14:33.789Z,86.45
2018-03-30T02:15:34.204Z,86.26
2018-03-30T02:16:34.638Z,86.35
2018-03-30T02:17:35.054Z,86.64
2018-03-30T02:18:35.468Z,86.45
2018-03-30T02:19:35.894Z,86.45
2018-03-30T02:20:36.315Z,86.45
2018-03-30T02:21:36.761Z,86.26
2018-03-30T02:22:37.165Z,86.45
2018-03-30T02:23:37.582Z,86.93
2018-03-30T02:24:38.025Z,87.21
2018-03-30T02:25:38.426Z,87.21
2018-03-30T02:26:38.844Z,87.40
2018-03-30T02:27:39.919Z,87.02
2018-03-30T02:28:39.698Z,87.12
2018-03-30T02:29:40.110Z,86.64
2018-03-30T02:30:40.537Z,87.68
2018-03-30T02:31:40.953Z,87.21
2018-03-30T02:32:41.386Z,86.93
2018-03-30T02:33:42.418Z,87.49
2018-03-30T02:34:42.220Z,86.83
2018-03-30T02:35:42.636Z,87.02
2018-03-30T02:36:43.069Z,86.83
2018-03-30T02:37:43.488Z,86.93
2018-03-30T02:38:43.914Z,87.12
2018-03-30T02:39:44.484Z,87.40
2018-03-30T02:40:44.745Z,87.21
2018-03-30T02:41:45.171Z,87.40
2018-03-30T02:42:45.660Z,87.21
2018-03-30T02:43:46.023Z,87.68
2018-03-30T02:44:46.434Z,88.25
2018-03-30T02:45:46.848Z,87.68
2018-03-30T02:46:47.278Z,87.97
2018-03-30T02:47:47.696Z,88.35
2018-03-30T02:48:48.124Z,88.54
2018-03-30T02:49:48.541Z,88.44
2018-03-30T02:50:48.975Z,88.44
2018-03-30T02:51:49.384Z,87.77
2018-03-30T02:52:49.810Z,87.77
2018-03-30T02:53:50.224Z,87.77
2018-03-30T02:54:50.643Z,88.54
2018-03-30T02:55:51.080Z,88.73
2018-03-30T02:56:51.494Z,88.82
2018-03-30T02:57:51.919Z,88.54
2018-03-30T02:58:52.335Z,88.54
2018-03-30T02:59:52.754Z,87.68
2018-03-30T03:00:53.171Z,87.77
2018-03-30T03:01:53.605Z,87.59
2018-03-30T03:02:54.019Z,86.93
2018-03-30T03:03:54.443Z,87.12
2018-03-30T03:04:54.860Z,86.45
2018-03-30T03:05:55.283Z,85.88
2018-03-30T03:06:55.700Z,85.78
2018-03-30T03:07:56.123Z,86.07
2018-03-30T03:08:56.553Z,85.41
2018-03-30T03:09:56.970Z,85.78
2018-03-30T03:10:57.387Z,85.13
2018-03-30T03:11:57.803Z,84.08
2018-03-30T03:12:58.236Z,83.89
2018-03-30T03:13:58.659Z,83.32
2018-03-30T03:14:59.076Z,83.00
2018-03-30T03:15:59.493Z,83.32
2018-03-30T03:16:59.913Z,83.23
2018-03-30T03:18:00.335Z,83.51
2018-03-30T03:19:00.762Z,83.23
2018-03-30T03:20:01.179Z,83.37
2018-03-30T03:21:01.599Z,83.18
2018-03-30T03:22:02.022Z,83.00
2018-03-30T03:23:02.439Z,83.18
2018-03-30T03:24:02.869Z,83.75
2018-03-30T03:25:03.288Z,83.66
2018-03-30T03:26:03.709Z,83.75
2018-03-30T03:27:04.121Z,83.28
2018-03-30T03:28:04.547Z,83.37
2018-03-30T03:29:04.971Z,83.37
2018-03-30T03:30:05.388Z,82.81
2018-03-30T03:31:05.805Z,82.62
2018-03-30T03:32:06.239Z,83.18
2018-03-30T03:33:06.654Z,83.00
2018-03-30T03:34:07.071Z,83.09
2018-03-30T03:35:07.494Z,83.18
2018-03-30T03:36:07.912Z,84.04
2018-03-30T03:37:08.377Z,83.85
2018-03-30T03:38:08.762Z,84.04
2018-03-30T03:39:09.202Z,85.08
2018-03-30T03:40:09.596Z,85.55
2018-03-30T03:41:10.015Z,85.55
2018-03-30T03:42:10.503Z,85.55
2018-03-30T03:43:10.878Z,85.93
2018-03-30T03:44:11.282Z,86.60
2018-03-30T03:45:11.710Z,86.22
2018-03-30T03:46:12.126Z,86.12
2018-03-30T03:47:12.538Z,86.12
2018-03-30T03:48:12.957Z,86.31
2018-03-30T03:49:13.390Z,86.98
2018-03-30T03:50:13.812Z,86.22
2018-03-30T03:51:14.258Z,86.41
2018-03-30T03:52:14.647Z,86.31
2018-03-30T03:53:15.067Z,86.41
2018-03-30T03:54:15.503Z,86.41
2018-03-30T03:55:15.919Z,86.65
2018-03-30T03:56:16.335Z,86.83
2018-03-30T03:57:16.755Z,87.26
2018-03-30T03:58:17.175Z,87.59
2018-03-30T03:59:17.586Z,88.26
2018-03-30T04:00:18.011Z,88.49
2018-03-30T04:01:18.430Z,88.02
2018-03-30T04:02:18.859Z,88.49
2018-03-30T04:03:19.276Z,88.45
2018-03-30T04:04:19.693Z,88.82
2018-03-30T04:05:20.113Z,89.20
2018-03-30T04:06:20.545Z,88.82
2018-03-30T04:07:20.963Z,89.20
2018-03-30T04:08:21.380Z,88.82
2018-03-30T04:09:21.798Z,88.54
2018-03-30T04:10:22.222Z,89.25
2018-03-30T04:11:22.632Z,89.01
2018-03-30T04:12:23.057Z,88.87
2018-03-30T04:13:23.479Z,89.11
2018-03-30T04:14:23.907Z,88.96
2018-03-30T04:15:24.316Z,88.87
2018-03-30T04:16:24.751Z,89.15
2018-03-30T04:17:25.169Z,89.87
2018-03-30T04:18:25.582Z,89.87
2018-03-30T04:19:26.004Z,90.25
2018-03-30T04:20:26.430Z,90.44
2018-03-30T04:21:26.854Z,90.34
2018-03-30T04:22:27.270Z,90.44
2018-03-30T04:23:27.711Z,90.15
2018-03-30T04:24:28.111Z,90.91
2018-03-30T04:25:28.523Z,91.38
2018-03-30T04:26:28.945Z,90.63
2018-03-30T04:27:29.363Z,91.29
2018-03-30T04:28:29.788Z,90.63
2018-03-30T04:29:30.213Z,90.72
2018-03-30T04:30:30.647Z,91.38
2018-03-30T04:31:31.057Z,91.38
2018-03-30T04:32:31.473Z,91.29
2018-03-30T04:33:31.896Z,90.53
2018-03-30T04:34:32.314Z,90.34
2018-03-30T04:35:32.732Z,90.44
2018-03-30T04:36:33.155Z,90.44
2018-03-30T04:37:33.624Z,90.63
2018-03-30T04:38:33.993Z,90.25
2018-03-30T04:39:34.408Z,90.15
2018-03-30T04:40:34.892Z,90.25
2018-03-30T04:41:35.253Z,90.06
2018-03-30T04:42:35.681Z,90.15
2018-03-30T04:43:36.092Z,90.34
2018-03-30T04:44:36.512Z,90.25
2018-03-30T04:45:36.944Z,90.25
2018-03-30T04:46:37.353Z,90.15
2018-03-30T04:47:37.783Z,89.87
2018-03-30T04:48:38.200Z,90.06
2018-03-30T04:49:38.619Z,90.34
2018-03-30T04:50:39.034Z,90.34
2018-03-30T04:51:39.453Z,90.81
2018-03-30T04:52:39.876Z,90.81
2018-03-30T04:53:40.298Z,90.63
2018-03-30T04:54:40.718Z,91.29
2018-03-30T04:55:41.206Z,90.53
2018-03-30T04:56:41.556Z,91.29
2018-03-30T04:57:41.976Z,91.95
2018-03-30T04:58:42.408Z,92.14
2018-03-30T04:59:42.821Z,92.14
2018-03-30T05:00:43.240Z,92.43
2018-03-30T05:01:43.656Z,92.05
2018-03-30T05:02:44.083Z,92.61
2018-03-30T05:03:44.497Z,92.71
2018-03-30T05:04:44.938Z,92.71
2018-03-30T05:05:45.341Z,93.18
2018-03-30T05:06:45.764Z,93.37
2018-03-30T05:07:46.181Z,94.70
2018-03-30T05:08:46.597Z,94.98
2018-03-30T05:09:47.022Z,94.70
2018-03-30T05:10:47.445Z,94.70
2018-03-30T05:11:47.866Z,94.70
2018-03-30T05:12:48.280Z,94.89
2018-03-30T05:13:48.701Z,94.89
2018-03-30T05:14:49.130Z,94.79
2018-03-30T05:15:49.545Z,95.36
2018-03-30T05:16:49.971Z,94.89
2018-03-30T05:17:50.387Z,95.07
2018-03-30T05:18:50.806Z,95.26
2018-03-30T05:19:51.223Z,95.17
2018-03-30T05:20:51.648Z,95.45
2018-03-30T05:21:52.069Z,96.21
2018-03-30T05:22:52.491Z,94.98
2018-03-30T05:23:52.920Z,95.74
2018-03-30T05:24:53.330Z,95.55
2018-03-30T05:25:53.769Z,95.55
2018-03-30T05:26:54.181Z,95.36
2018-03-30T05:27:54.589Z,95.26
2018-03-30T05:28:55.058Z,94.79
2018-03-30T05:29:55.436Z,95.07
2018-03-30T05:30:55.853Z,95.26
2018-03-30T05:31:56.273Z,94.98
2018-03-30T05:32:56.708Z,95.07
2018-03-30T05:33:57.124Z,95.07
2018-03-30T05:34:57.540Z,95.55
2018-03-30T05:35:57.953Z,95.93
2018-03-30T05:36:58.386Z,95.93
2018-03-30T05:37:58.794Z,95.93
2018-03-30T05:38:59.223Z,95.93
2018-03-30T05:39:59.639Z,96.12
2018-03-30T05:41:00.060Z,96.40
2018-03-30T05:42:00.483Z,96.31
2018-03-30T05:43:00.910Z,97.44
2018-03-30T05:44:01.323Z,97.06
2018-03-30T05:45:01.745Z,96.40
2018-03-30T05:46:02.166Z,96.31
2018-03-30T05:47:02.583Z,96.78
2018-03-30T05:48:03.005Z,97.16
2018-03-30T05:49:03.437Z,97.16
2018-03-30T05:50:03.866Z,96.97
2018-03-30T05:51:04.265Z,97.44
2018-03-30T05:52:04.695Z,97.35
2018-03-30T05:53:05.113Z,97.30
2018-03-30T05:54:05.530Z,97.30
2018-03-30T05:55:05.952Z,97.30
2018-03-30T05:56:06.370Z,97.16
2018-03-30T05:57:06.800Z,97.59
2018-03-30T05:58:07.297Z,97.16
2018-03-30T05:59:07.640Z,97.59
2018-03-30T06:00:08.059Z,97.87
2018-03-30T06:01:08.476Z,98.16
2018-03-30T06:02:08.904Z,98.25
2018-03-30T06:03:09.319Z,98.11
2018-03-30T06:04:09.740Z,98.01
2018-03-30T06:05:10.954Z,98.06
2018-03-30T06:06:10.583Z,98.16
2018-03-30T06:07:11.017Z,98.44
2018-03-30T06:08:11.428Z,98.35
2018-03-30T06:09:11.848Z,98.54
2018-03-30T06:10:12.269Z,98.44
2018-03-30T06:11:12.712Z,98.91
2018-03-30T06:12:13.141Z,99.29
2018-03-30T06:13:13.530Z,99.39
2018-03-30T06:14:13.955Z,99.29
2018-03-30T06:15:14.377Z,99.96
2018-03-30T06:16:14.797Z,99.77
2018-03-30T06:17:15.219Z,99.10
2018-03-30T06:18:15.639Z,99.67
2018-03-30T06:19:16.066Z,99.99
2018-03-30T06:20:16.484Z,99.67
2018-03-30T06:21:16.900Z,99.77
2018-03-30T06:22:17.323Z,99.99
2018-03-30T06:23:17.746Z,99.99
2018-03-30T06:24:18.169Z,99.99
2018-03-30T06:25:18.588Z,99.58
2018-03-30T06:26:19.021Z,99.99
2018-03-30T06:27:19.433Z,99.99
2018-03-30T06:28:19.849Z,99.99
2018-03-30T06:29:20.275Z,99.99
2018-03-30T06:30:20.729Z,99.99
2018-03-30T06:31:21.118Z,99.99
2018-03-30T06:32:21.581Z,99.99
2018-03-30T06:33:21.963Z,99.99
2018-03-30T06:34:22.382Z,99.99
2018-03-30T06:35:22.806Z,99.82
2018-03-30T06:36:23.224Z,99.72
2018-03-30T06:37:23.649Z,99.99
2018-03-30T06:38:24.076Z,99.99
2018-03-30T06:39:24.492Z,99.99
2018-03-30T06:40:24.916Z,99.99
2018-03-30T06:41:25.338Z,99.99
2018-03-30T06:42:25.806Z,99.99
2018-03-30T06:43:26.187Z,99.99
2018-03-30T06:44:26.608Z,99.99
2018-03-30T06:45:27.022Z,99.99
2018-03-30T06:46:27.442Z,99.99
2018-03-30T06:47:27.876Z,99.99
2018-03-30T06:48:28.287Z,99.99
2018-03-30T06:49:28.733Z,99.99
2018-03-30T06:50:29.143Z,99.99
2018-03-30T06:51:29.564Z,99.99
2018-03-30T06:52:29.986Z,99.99
2018-03-30T06:53:30.413Z,99.99
2018-03-30T06:54:30.827Z,99.99
2018-03-30T06:55:31.252Z,99.99
2018-03-30T06:56:31.676Z,99.99
2018-03-30T06:57:32.101Z,99.99
2018-03-30T06:58:32.523Z,99.99
2018-03-30T06:59:32.937Z,99.99
2018-03-30T07:00:33.358Z,99.99
2018-03-30T07:01:33.789Z,99.99
2018-03-30T07:02:34.208Z,99.99
2018-03-30T07:03:34.631Z,99.99
2018-03-30T07:04:35.053Z,99.99
2018-03-30T07:05:35.475Z,99.99
2018-03-30T07:06:35.911Z,99.99
2018-03-30T07:07:36.347Z,99.99
2018-03-30T07:08:36.759Z,99.99
2018-03-30T07:09:37.176Z,99.99
2018-03-30T07:10:37.592Z,99.99
2018-03-30T07:11:38.013Z,99.99
2018-03-30T07:12:38.434Z,99.99
2018-03-30T07:13:38.869Z,99.99
2018-03-30T07:14:39.281Z,99.99
2018-03-30T07:15:39.712Z,99.99
2018-03-30T07:16:40.135Z,99.99
2018-03-30T07:17:40.553Z,99.99
2018-03-30T07:18:40.988Z,99.87
2018-03-30T07:19:41.399Z,99.99
2018-03-30T07:20:41.816Z,99.99
2018-03-30T07:21:42.250Z,99.99
2018-03-30T07:22:42.677Z,99.99
2018-03-30T07:23:43.103Z,99.99
2018-03-30T07:24:43.514Z,99.99
2018-03-30T07:25:43.943Z,99.99
2018-03-30T07:26:44.358Z,99.91
2018-03-30T07:27:44.803Z,99.63
2018-03-30T07:28:45.213Z,99.63
2018-03-30T07:29:45.630Z,99.63
2018-03-30T07:30:46.062Z,99.99
2018-03-30T07:31:46.482Z,99.35
2018-03-30T07:32:46.912Z,99.82
2018-03-30T07:33:47.327Z,99.82
2018-03-30T07:34:47.792Z,99.54
2018-03-30T07:35:48.200Z,99.35
2018-03-30T07:36:48.608Z,99.58
2018-03-30T07:37:49.023Z,99.99
2018-03-30T07:38:49.453Z,99.26
2018-03-30T07:39:49.872Z,99.68
2018-03-30T07:40:50.296Z,99.11
2018-03-30T07:41:50.718Z,99.02
2018-03-30T07:42:51.154Z,98.97
2018-03-30T07:43:51.582Z,98.07
2018-03-30T07:44:52.002Z,97.69
2018-03-30T07:45:52.425Z,98.07
2018-03-30T07:46:52.848Z,98.16
2018-03-30T07:47:53.315Z,98.40
2018-03-30T07:48:53.695Z,98.97
2018-03-30T07:49:54.127Z,98.68
2018-03-30T07:50:54.566Z,99.63
2018-03-30T07:51:54.977Z,98.83
2018-03-30T07:52:55.420Z,99.21
2018-03-30T07:53:55.830Z,98.59
2018-03-30T07:54:56.254Z,97.78
2018-03-30T07:55:56.725Z,98.02
2018-03-30T07:56:57.110Z,98.78
2018-03-30T07:57:57.528Z,99.99
2018-03-30T07:58:57.955Z,99.99
2018-03-30T07:59:58.406Z,99.82
2018-03-30T08:00:58.808Z,99.02
2018-03-30T08:01:59.224Z,98.54
2018-03-30T08:02:59.666Z,97.92
2018-03-30T08:04:00.085Z,97.64
2018-03-30T08:05:00.511Z,96.55
2018-03-30T08:06:00.933Z,96.79
2018-03-30T08:07:01.358Z,96.74
2018-03-30T08:08:01.788Z,96.03
2018-03-30T08:09:02.211Z,94.13
2018-03-30T08:10:02.643Z,92.75
2018-03-30T08:11:03.065Z,92.08
2018-03-30T08:12:03.492Z,91.03
2018-03-30T08:13:03.916Z,89.80
2018-03-30T08:14:04.371Z,90.22
2018-03-30T08:15:04.783Z,90.13
2018-03-30T08:16:05.200Z,90.65
2018-03-30T08:17:05.640Z,89.89
2018-03-30T08:18:06.057Z,86.36
2018-03-30T08:19:06.496Z,86.08
2018-03-30T08:20:06.916Z,84.46
2018-03-30T08:21:07.406Z,84.31
2018-03-30T08:22:07.778Z,83.32
2018-03-30T08:23:08.201Z,82.89
2018-03-30T08:24:08.679Z,83.55
2018-03-30T08:25:09.066Z,82.26
2018-03-30T08:26:09.490Z,80.64
2018-03-30T08:27:09.929Z,79.88
2018-03-30T08:28:10.348Z,78.73
2018-03-30T08:29:10.781Z,78.30
2018-03-30T08:30:11.209Z,78.67
2018-03-30T08:31:11.649Z,78.75
2018-03-30T08:32:12.066Z,74.84
2018-03-30T08:33:12.505Z,72.87
2018-03-30T08:34:12.929Z,70.03
2018-03-30T08:35:13.363Z,72.50
2018-03-30T08:36:13.794Z,76.54
2018-03-30T08:37:14.226Z,75.57
2018-03-30T08:38:14.674Z,73.60
2018-03-30T08:39:15.090Z,72.30
2018-03-30T08:40:15.532Z,70.81
2018-03-30T08:41:15.965Z,68.80
2018-03-30T08:42:16.397Z,67.02
2018-03-30T08:43:16.829Z,66.06
2018-03-30T08:44:17.257Z,65.20
2018-03-30T08:45:17.702Z,69.82
2018-03-30T08:46:18.139Z,72.12
2018-03-30T08:47:18.579Z,71.04
2018-03-30T08:48:18.999Z,64.85
2018-03-30T08:49:19.496Z,61.43
2018-03-30T08:50:19.875Z,57.83
2018-03-30T08:51:20.310Z,58.66
2018-03-30T08:52:20.753Z,59.23
2018-03-30T08:53:21.217Z,59.01
2018-03-30T08:54:21.640Z,61.05
2018-03-30T08:55:22.101Z,59.14
2018-03-30T08:56:22.539Z,60.00
2018-03-30T08:57:22.948Z,60.10
2018-03-30T08:58:23.374Z,59.49
2018-03-30T08:59:23.817Z,59.63
2018-03-30T09:00:24.250Z,63.64
2018-03-30T09:01:24.681Z,67.48
2018-03-30T09:02:25.135Z,69.87
2018-03-30T09:03:25.551Z,71.55
2018-03-30T09:04:26.007Z,72.69
2018-03-30T09:05:26.420Z,73.28
2018-03-30T09:06:26.862Z,75.64
2018-03-30T09:07:27.295Z,74.65
2018-03-30T09:08:27.740Z,76.27
2018-03-30T09:09:28.161Z,77.26
2018-03-30T09:10:28.595Z,74.82
2018-03-30T09:11:29.026Z,73.01
2018-03-30T09:12:29.465Z,74.57
2018-03-30T09:13:29.904Z,73.81
2018-03-30T09:14:30.327Z,73.52
2018-03-30T09:15:30.759Z,71.52
2018-03-30T09:16:31.197Z,70.95
2018-03-30T09:17:31.632Z,71.81
2018-03-30T09:18:32.062Z,71.43
2018-03-30T09:19:32.489Z,71.72
2018-03-30T09:20:33.020Z,72.38
2018-03-30T09:21:33.355Z,72.02
2018-03-30T09:22:33.790Z,74.98
2018-03-30T09:23:34.226Z,74.79
2018-03-30T09:24:34.662Z,75.51
2018-03-30T09:25:35.087Z,76.94
2018-03-30T09:26:35.525Z,76.21
2018-03-30T09:27:35.961Z,75.60
2018-03-30T09:28:36.390Z,76.65
2018-03-30T09:29:36.816Z,77.22
2018-03-30T09:30:37.246Z,77.95
2018-03-30T09:31:37.682Z,78.80
2018-03-30T09:32:38.106Z,79.85
2018-03-30T09:33:38.540Z,79.28
2018-03-30T09:34:38.980Z,79.32
2018-03-30T09:35:39.401Z,78.94
2018-03-30T09:36:39.833Z,77.89
2018-03-30T09:37:40.269Z,78.37
2018-03-30T09:38:40.697Z,79.41
2018-03-30T09:39:41.119Z,78.56
2018-03-30T09:40:41.547Z,79.38
2018-03-30T09:41:41.975Z,80.42
2018-03-30T09:42:42.411Z,81.09
2018-03-30T09:43:42.834Z,81.76
2018-03-30T09:44:43.265Z,83.23
2018-03-30T09:45:43.699Z,84.62
2018-03-30T09:46:44.122Z,85.38
2018-03-30T09:47:44.553Z,86.43
2018-03-30T09:48:44.972Z,87.95
2018-03-30T09:49:45.411Z,88.71
2018-03-30T09:50:45.840Z,89.09
2018-03-30T09:51:46.258Z,88.90
2018-03-30T09:52:46.691Z,88.52
2018-03-30T09:53:47.114Z,88.52
2018-03-30T09:54:47.549Z,88.61
2018-03-30T09:55:47.972Z,88.90
2018-03-30T09:56:48.403Z,88.80
2018-03-30T09:57:48.823Z,88.33
2018-03-30T09:58:49.254Z,88.13
2018-03-30T09:59:49.679Z,87.71
2018-03-30T10:00:50.109Z,87.90
2018-03-30T10:01:50.528Z,87.80
2018-03-30T10:02:50.967Z,86.66
2018-03-30T10:03:51.399Z,86.18
2018-03-30T10:04:51.820Z,86.38
2018-03-30T10:05:52.250Z,86.94
2018-03-30T10:06:52.674Z,87.13
2018-03-30T10:07:53.132Z,87.52
2018-03-30T10:08:53.531Z,86.57
2018-03-30T10:09:53.957Z,86.85
2018-03-30T10:10:54.408Z,86.22
2018-03-30T10:11:54.813Z,85.28
2018-03-30T10:12:55.238Z,85.13
2018-03-30T10:13:55.665Z,83.26
2018-03-30T10:14:56.103Z,82.03
2018-03-30T10:15:56.524Z,81.02
2018-03-30T10:16:56.950Z,81.25
2018-03-30T10:17:57.384Z,76.90
2018-03-30T10:18:57.809Z,74.65
2018-03-30T10:19:58.242Z,73.56
2018-03-30T10:20:58.706Z,73.14
2018-03-30T10:21:59.100Z,73.72
2018-03-30T10:22:59.544Z,74.38
2018-03-30T10:23:59.970Z,74.10
2018-03-30T10:25:00.429Z,73.47
2018-03-30T10:26:00.854Z,72.42
2018-03-30T10:27:01.271Z,72.32
2018-03-30T10:28:01.722Z,72.32
2018-03-30T10:29:02.146Z,71.50
2018-03-30T10:30:02.578Z,72.03
2018-03-30T10:31:03.012Z,72.89
2018-03-30T10:32:03.445Z,72.48
2018-03-30T10:33:03.896Z,72.67
2018-03-30T10:34:04.326Z,75.60
2018-03-30T10:35:04.763Z,70.87
2018-03-30T10:36:05.239Z,69.09
2018-03-30T10:37:05.636Z,67.59
2018-03-30T10:38:06.075Z,65.71
2018-03-30T10:39:06.518Z,66.64
2018-03-30T10:40:06.952Z,62.74
2018-03-30T10:41:07.395Z,59.90
2018-03-30T10:42:07.840Z,57.65
2018-03-30T10:43:08.294Z,55.64
2018-03-30T10:44:08.722Z,54.17
2018-03-30T10:45:09.196Z,55.75
2018-03-30T10:46:09.610Z,57.38
2018-03-30T10:47:10.048Z,58.94
2018-03-30T10:48:10.491Z,55.62
2018-03-30T10:49:10.932Z,54.97
2018-03-30T10:50:11.385Z,53.34
2018-03-30T10:51:11.829Z,52.76
2018-03-30T10:52:12.294Z,52.38
2018-03-30T10:53:12.771Z,53.15
2018-03-30T10:54:13.174Z,51.47
2018-03-30T10:55:13.607Z,50.46
2018-03-30T10:56:14.055Z,51.56
2018-03-30T10:57:14.583Z,53.62
2018-03-30T10:58:14.957Z,54.48
2018-03-30T10:59:15.402Z,54.36
2018-03-30T11:00:15.865Z,54.86
2018-03-30T11:01:16.301Z,54.50
2018-03-30T11:02:16.747Z,52.45
2018-03-30T11:03:17.204Z,51.61
2018-03-30T11:04:17.654Z,50.24
2018-03-30T11:05:18.169Z,51.44
2018-03-30T11:06:18.542Z,53.52
2018-03-30T11:07:18.991Z,54.38
2018-03-30T11:08:19.451Z,54.03
2018-03-30T11:09:19.884Z,54.08
2018-03-30T11:10:20.346Z,51.54
2018-03-30T11:11:20.779Z,48.59
2018-03-30T11:12:21.230Z,48.93
2018-03-30T11:13:21.682Z,51.32
2018-03-30T11:14:22.126Z,53.04
2018-03-30T11:15:22.572Z,53.59
2018-03-30T11:16:23.028Z,53.75
2018-03-30T11:17:23.482Z,54.41
2018-03-30T11:18:23.921Z,52.87
2018-03-30T11:19:24.388Z,54.23
2018-03-30T11:20:24.824Z,54.57
2018-03-30T11:21:25.272Z,53.64
2018-03-30T11:22:25.733Z,51.15
2018-03-30T11:23:26.168Z,51.08
2018-03-30T11:24:26.624Z,49.38
2018-03-30T11:25:27.067Z,51.32
2018-03-30T11:26:27.520Z,52.30
2018-03-30T11:27:27.969Z,52.11
2018-03-30T11:28:28.414Z,50.12
2018-03-30T11:29:28.866Z,49.38
2018-03-30T11:30:29.317Z,49.69
2018-03-30T11:31:29.765Z,51.68
2018-03-30T11:32:30.218Z,52.99
2018-03-30T11:33:30.680Z,53.59
2018-03-30T11:34:31.112Z,51.70
2018-03-30T11:35:31.590Z,50.51
2018-03-30T11:36:32.033Z,48.90
2018-03-30T11:37:32.468Z,48.47
2018-03-30T11:38:32.926Z,46.50
2018-03-30T11:39:33.361Z,43.55
2018-03-30T11:40:33.810Z,45.04
2018-03-30T11:41:34.271Z,47.25
2018-03-30T11:42:34.715Z,47.46
2018-03-30T11:43:35.166Z,45.70
2018-03-30T11:44:35.620Z,42.03
2018-03-30T11:45:36.086Z,41.60
2018-03-30T11:46:36.553Z,43.55
2018-03-30T11:47:36.975Z,45.14
2018-03-30T11:48:37.438Z,50.74
2018-03-30T11:49:37.869Z,52.67
2018-03-30T11:50:38.317Z,53.06
2018-03-30T11:51:38.764Z,54.25
2018-03-30T11:52:39.215Z,55.80
2018-03-30T11:53:39.660Z,54.94
2018-03-30T11:54:40.100Z,54.94
2018-03-30T11:55:40.576Z,56.09
2018-03-30T11:56:40.984Z,56.47
2018-03-30T11:57:41.428Z,56.41
2018-03-30T11:58:41.870Z,58.23
2018-03-30T11:59:42.322Z,58.11
2018-03-30T12:00:42.744Z,58.68
2018-03-30T12:01:43.203Z,59.31
2018-03-30T12:02:43.631Z,60.84
2018-03-30T12:03:44.061Z,61.99
2018-03-30T12:04:44.496Z,62.24
2018-03-30T12:05:44.930Z,62.52
2018-03-30T12:06:45.370Z,62.52
2018-03-30T12:07:45.805Z,63.67
2018-03-30T12:08:46.250Z,63.76
2018-03-30T12:09:46.677Z,63.73
2018-03-30T12:10:47.112Z,64.21
2018-03-30T12:11:47.543Z,64.62
2018-03-30T12:12:47.975Z,63.73
2018-03-30T12:13:48.398Z,64.02
2018-03-30T12:14:48.846Z,63.20
2018-03-30T12:15:49.266Z,62.43
2018-03-30T12:16:49.698Z,62.43
2018-03-30T12:17:50.131Z,63.00
2018-03-30T12:18:50.581Z,62.72
2018-03-30T12:19:51.007Z,62.24
2018-03-30T12:20:52.047Z,62.52
2018-03-30T12:21:51.856Z,62.34
2018-03-30T12:22:52.290Z,62.34
2018-03-30T12:23:52.720Z,62.62
2018-03-30T12:24:53.181Z,62.24
2018-03-30T12:25:53.624Z,61.10
2018-03-30T12:26:54.097Z,61.96
2018-03-30T12:27:54.463Z,61.76
2018-03-30T12:28:54.914Z,61.67
2018-03-30T12:29:55.339Z,62.34
2018-03-30T12:30:55.756Z,62.05
2018-03-30T12:31:56.222Z,62.24
2018-03-30T12:32:56.601Z,62.15
2018-03-30T12:33:57.018Z,61.19
2018-03-30T12:34:57.471Z,61.57
2018-03-30T12:35:57.903Z,62.43
2018-03-30T12:36:58.372Z,62.24
2018-03-30T12:37:58.750Z,62.15
2018-03-30T12:38:59.205Z,62.72
2018-03-30T12:39:59.647Z,62.62
2018-03-30T12:41:00.058Z,62.43
2018-03-30T12:42:00.464Z,62.15
2018-03-30T12:43:00.894Z,62.24
2018-03-30T12:44:01.330Z,61.35
2018-03-30T12:45:01.737Z,61.16
2018-03-30T12:46:02.189Z,61.73
2018-03-30T12:47:02.626Z,59.83
2018-03-30T12:48:03.050Z,60.02
2018-03-30T12:49:03.504Z,61.10
2018-03-30T12:50:03.898Z,61.19
2018-03-30T12:51:04.324Z,61.10
2018-03-30T12:52:04.759Z,61.19
2018-03-30T12:53:05.202Z,61.76
2018-03-30T12:54:05.632Z,61.76
2018-03-30T12:55:06.075Z,61.96
2018-03-30T12:56:06.492Z,61.86
2018-03-30T12:57:06.936Z,61.48
2018-03-30T12:58:07.335Z,61.41